Time;durP1;ratioP1;P1;durP2;ratioP2;P2;SDS_P1;SDS_P2;PMS_P1;PMS_P2;Temp;Humidity;BMP_temperature;BMP_pressure;BME280_temperature;BME280_humidity;BME280_pressure;Samples;Min_cycle;Max_cycle;Signal;HPM_P1;HPM_P2
2023/03/14 00:01:55;;;;;;;10.60;3.10;;;;;;;;;;5018891;28;20189;-75
2023/03/14 00:04:22;;;;;;;4.78;2.30;;;;;;;;;;5026747;28;20552;-75
2023/03/14 00:06:49;;;;;;;5.00;1.98;;;;;;;;;;5027607;28;20041;-75
2023/03/14 00:09:16;;;;;;;5.40;2.08;;;;;;;;;;5028645;28;20033;-75
2023/03/14 00:11:42;;;;;;;3.60;1.95;;;;;;;;;;5027294;28;20031;-75
2023/03/14 00:14:08;;;;;;;8.15;2.83;;;;;;;;;;5011421;28;20093;-75
2023/03/14 00:16:34;;;;;;;5.00;1.98;;;;;;;;;;5028773;28;20037;-75
2023/03/14 00:19:00;;;;;;;5.75;2.22;;;;;;;;;;5028125;28;20096;-75
2023/03/14 00:21:27;;;;;;;4.25;1.65;;;;;;;;;;5028841;28;20021;-75
2023/03/14 00:23:53;;;;;;;6.05;2.22;;;;;;;;;;5028768;28;20380;-75
2023/03/14 00:26:20;;;;;;;7.07;2.80;;;;;;;;;;5013320;28;20021;-75
2023/03/14 00:28:46;;;;;;;3.72;1.75;;;;;;;;;;5017255;28;20117;-75
2023/03/14 00:31:14;;;;;;;7.38;2.35;;;;;;;;;;5026294;28;20029;-76
2023/03/14 00:33:40;;;;;;;4.15;2.35;;;;;;;;;;5028788;28;20026;-75
2023/03/14 00:36:11;;;;;;;6.30;2.03;;;;;;;;;;5028381;28;20413;-75
2023/03/14 00:38:38;;;;;;;7.17;3.03;;;;;;;;;;5009298;28;20866;-75
2023/03/14 00:41:06;;;;;;;6.38;1.95;;;;;;;;;;5028307;28;20057;-76
2023/03/14 00:43:32;;;;;;;7.30;2.10;;;;;;;;;;5024794;28;20021;-76
2023/03/14 00:45:59;;;;;;;5.00;2.30;;;;;;;;;;5025243;28;20033;-75
2023/03/14 00:48:25;;;;;;;4.22;1.50;;;;;;;;;;5010782;28;20556;-75
2023/03/14 00:50:51;;;;;;;2.70;1.50;;;;;;;;;;5028212;28;20033;-75
2023/03/14 00:53:17;;;;;;;3.63;1.67;;;;;;;;;;5027152;28;20169;-75
2023/03/14 00:55:44;;;;;;;5.05;1.80;;;;;;;;;;5028041;28;20029;-75
2023/03/14 00:58:11;;;;;;;3.63;1.75;;;;;;;;;;5028234;28;20109;-75
2023/03/14 01:00:37;;;;;;;4.50;1.92;;;;;;;;;;5027737;28;20413;-75
2023/03/14 01:03:04;;;;;;;3.65;1.25;;;;;;;;;;5026986;28;20017;-75
2023/03/14 01:05:30;;;;;;;4.78;1.58;;;;;;;;;;5010619;28;20399;-75
2023/03/14 01:07:57;;;;;;;3.70;1.38;;;;;;;;;;5027924;28;20027;-76
2023/03/14 01:10:23;;;;;;;2.08;1.10;;;;;;;;;;5026093;28;20037;-75
2023/03/14 01:12:49;;;;;;;2.40;1.15;;;;;;;;;;5010425;28;20109;-75
2023/03/14 01:15:15;;;;;;;2.78;1.30;;;;;;;;;;5027878;28;20140;-75
2023/03/14 01:17:42;;;;;;;2.75;1.60;;;;;;;;;;5027435;28;20013;-75
2023/03/14 01:20:11;;;;;;;3.63;1.40;;;;;;;;;;5026442;28;20087;-75
2023/03/14 01:22:39;;;;;;;3.33;1.63;;;;;;;;;;5027186;28;20052;-75
2023/03/14 01:25:06;;;;;;;4.53;1.88;;;;;;;;;;5028045;28;20172;-75
2023/03/14 01:27:33;;;;;;;4.03;1.60;;;;;;;;;;5028039;28;20112;-75
2023/03/14 01:29:59;;;;;;;4.70;1.55;;;;;;;;;;5026368;28;20044;-76
2023/03/14 01:32:25;;;;;;;4.20;1.70;;;;;;;;;;5027631;28;20037;-75
2023/03/14 01:34:52;;;;;;;4.05;1.95;;;;;;;;;;5024841;28;20112;-75
2023/03/14 01:37:18;;;;;;;7.18;1.90;;;;;;;;;;5020033;28;20112;-75
2023/03/14 01:39:44;;;;;;;4.00;1.60;;;;;;;;;;5027305;28;20180;-75
2023/03/14 01:42:10;;;;;;;6.57;1.60;;;;;;;;;;5026121;28;20056;-75
2023/03/14 01:44:50;;;;;;;6.25;2.20;;;;;;;;;;5027218;28;20116;-75
2023/03/14 01:47:16;;;;;;;5.35;1.88;;;;;;;;;;5014245;28;20738;-75
2023/03/14 01:49:42;;;;;;;3.78;1.67;;;;;;;;;;5027059;28;20084;-75
2023/03/14 01:52:17;;;;;;;4.47;1.70;;;;;;;;;;5026008;28;20100;-75
2023/03/14 01:54:45;;;;;;;6.38;1.90;;;;;;;;;;5009743;28;20025;-76
2023/03/14 01:57:11;;;;;;;3.38;1.75;;;;;;;;;;5027428;28;20093;-75
2023/03/14 01:59:38;;;;;;;3.75;1.90;;;;;;;;;;5021291;28;20136;-75
2023/03/14 02:02:07;;;;;;;7.45;2.20;;;;;;;;;;5025374;28;20105;-75
2023/03/14 02:04:34;;;;;;;8.77;2.33;;;;;;;;;;5027246;28;20071;-75
2023/03/14 02:07:01;;;;;;;4.65;1.98;;;;;;;;;;5026942;28;20096;-75
2023/03/14 02:09:27;;;;;;;4.43;2.25;;;;;;;;;;5025056;28;20124;-75
2023/03/14 02:11:53;;;;;;;5.57;2.30;;;;;;;;;;5027125;28;20023;-75
2023/03/14 02:14:27;;;;;;;7.43;2.65;;;;;;;;;;5009048;28;20017;-75
2023/03/14 02:16:54;;;;;;;8.88;2.70;;;;;;;;;;5008916;28;20956;-75
2023/03/14 02:19:25;;;;;;;5.10;2.38;;;;;;;;;;5025398;28;20104;-75
2023/03/14 02:22:00;;;;;;;3.92;1.90;;;;;;;;;;5026590;28;20034;-75
2023/03/14 02:24:40;;;;;;;3.97;2.33;;;;;;;;;;5026575;28;20113;-75
2023/03/14 02:27:08;;;;;;;7.53;1.92;;;;;;;;;;5026717;28;20112;-75
2023/03/14 02:29:36;;;;;;;5.25;1.92;;;;;;;;;;5008695;28;20545;-75
2023/03/14 02:32:03;;;;;;;2.92;1.88;;;;;;;;;;5015971;28;20030;-75
2023/03/14 02:34:31;;;;;;;4.95;2.05;;;;;;;;;;5022538;28;20397;-75
2023/03/14 02:36:57;;;;;;;4.43;1.85;;;;;;;;;;5026552;28;20029;-74
2023/03/14 02:39:28;;;;;;;5.25;2.13;;;;;;;;;;5026133;28;20556;-74
2023/03/14 02:41:54;;;;;;;3.75;1.80;;;;;;;;;;5024765;28;20045;-74
2023/03/14 02:44:20;;;;;;;5.53;1.80;;;;;;;;;;5026472;28;20108;-74
2023/03/14 02:46:47;;;;;;;4.43;2.05;;;;;;;;;;5024492;28;20557;-75
2023/03/14 02:49:14;;;;;;;5.43;1.70;;;;;;;;;;5026195;28;20116;-74
2023/03/14 02:51:41;;;;;;;5.55;2.10;;;;;;;;;;5026040;28;20045;-75
2023/03/14 02:54:08;;;;;;;3.72;1.55;;;;;;;;;;5026360;28;20100;-74
2023/03/14 02:56:34;;;;;;;3.25;2.00;;;;;;;;;;5026289;28;20029;-75
2023/03/14 02:59:03;;;;;;;5.57;2.35;;;;;;;;;;5024111;28;20064;-75
2023/03/14 03:01:29;;;;;;;4.90;2.40;;;;;;;;;;5017055;28;20550;-75
2023/03/14 03:03:55;;;;;;;6.53;2.40;;;;;;;;;;5023878;28;20053;-75
2023/03/14 03:06:21;;;;;;;6.63;1.90;;;;;;;;;;5024943;28;20072;-75
2023/03/14 03:08:47;;;;;;;4.82;2.30;;;;;;;;;;5026194;28;20575;-74
2023/03/14 03:11:14;;;;;;;7.82;2.47;;;;;;;;;;5025728;28;20129;-74
2023/03/14 03:13:40;;;;;;;5.50;2.28;;;;;;;;;;5029753;28;20026;-75
2023/03/14 03:16:06;;;;;;;4.90;2.30;;;;;;;;;;5028473;28;20094;-75
2023/03/14 03:18:32;;;;;;;6.70;2.97;;;;;;;;;;5030032;28;20101;-75
2023/03/14 03:21:03;;;;;;;6.93;2.58;;;;;;;;;;5027388;28;20607;-75
2023/03/14 03:23:29;;;;;;;5.13;2.13;;;;;;;;;;5020506;28;20033;-75
2023/03/14 03:25:55;;;;;;;5.38;2.22;;;;;;;;;;5028591;28;20033;-75
2023/03/14 03:28:21;;;;;;;3.38;1.77;;;;;;;;;;5029836;28;20069;-75
2023/03/14 03:30:47;;;;;;;5.47;2.08;;;;;;;;;;5029484;28;20207;-75
2023/03/14 03:33:14;;;;;;;4.20;1.60;;;;;;;;;;5029652;28;20025;-75
2023/03/14 03:35:47;;;;;;;1.45;0.82;;;;;;;;;;5028326;28;20030;-75
2023/03/14 03:38:13;;;;;;;3.03;0.77;;;;;;;;;;4996692;28;20018;-75
2023/03/14 03:40:39;;;;;;;2.45;1.00;;;;;;;;;;5029566;28;20492;-75
2023/03/14 03:43:06;;;;;;;2.05;0.90;;;;;;;;;;5028817;28;20184;-75
2023/03/14 03:45:32;;;;;;;2.20;0.95;;;;;;;;;;5027335;28;20096;-75
2023/03/14 03:47:58;;;;;;;2.00;0.82;;;;;;;;;;5007803;28;20384;-75
2023/03/14 03:50:25;;;;;;;2.85;1.70;;;;;;;;;;5010083;28;20053;-74
2023/03/14 03:52:51;;;;;;;2.45;1.08;;;;;;;;;;5029569;28;20030;-75
2023/03/14 03:55:17;;;;;;;1.60;0.90;;;;;;;;;;5029370;28;20034;-74
2023/03/14 03:57:44;;;;;;;2.03;0.82;;;;;;;;;;5029330;28;20045;-75
2023/03/14 04:00:12;;;;;;;1.63;0.90;;;;;;;;;;5027975;28;20101;-74
2023/03/14 04:02:38;;;;;;;1.58;0.80;;;;;;;;;;5013698;28;20501;-75
2023/03/14 04:05:04;;;;;;;15.70;1.30;;;;;;;;;;5022127;28;20136;-75
2023/03/14 04:07:32;;;;;;;2.55;1.00;;;;;;;;;;5025838;28;20521;-75
2023/03/14 04:09:58;;;;;;;2.35;1.20;;;;;;;;;;5026308;28;20120;-75
2023/03/14 04:12:24;;;;;;;3.50;1.10;;;;;;;;;;5024072;28;20028;-75
2023/03/14 04:14:50;;;;;;;4.25;1.40;;;;;;;;;;5022962;28;20108;-75
2023/03/14 04:17:17;;;;;;;4.20;1.23;;;;;;;;;;5020773;28;20045;-75
2023/03/14 04:19:43;;;;;;;2.78;1.30;;;;;;;;;;5016180;28;20041;-75
2023/03/14 04:22:09;;;;;;;3.42;1.20;;;;;;;;;;5024065;28;20488;-75
2023/03/14 04:24:36;;;;;;;1.95;1.08;;;;;;;;;;5023554;28;20035;-74
2023/03/14 04:27:02;;;;;;;2.45;1.33;;;;;;;;;;5022059;28;20021;-74
2023/03/14 04:29:28;;;;;;;1.50;1.10;;;;;;;;;;5019279;28;20019;-74
2023/03/14 04:31:54;;;;;;;2.35;1.20;;;;;;;;;;5017904;28;20501;-75
2023/03/14 04:34:20;;;;;;;2.30;1.40;;;;;;;;;;5022129;28;20017;-75
2023/03/14 04:36:47;;;;;;;3.00;1.27;;;;;;;;;;5023493;28;20025;-75
2023/03/14 04:39:13;;;;;;;3.15;1.40;;;;;;;;;;5023427;28;20589;-75
2023/03/14 04:41:39;;;;;;;5.45;1.70;;;;;;;;;;5023269;28;20045;-75
2023/03/14 04:44:05;;;;;;;5.78;1.15;;;;;;;;;;5023530;28;20786;-75
2023/03/14 04:46:31;;;;;;;2.25;1.10;;;;;;;;;;5023776;28;20060;-75
2023/03/14 04:48:58;;;;;;;6.43;1.50;;;;;;;;;;5021863;28;20022;-75
2023/03/14 04:51:27;;;;;;;3.75;1.33;;;;;;;;;;5023337;28;20494;-75
2023/03/14 04:53:54;;;;;;;5.20;1.40;;;;;;;;;;5023312;28;20025;-75
2023/03/14 04:56:20;;;;;;;2.80;1.30;;;;;;;;;;5023208;28;20815;-75
2023/03/14 04:58:46;;;;;;;2.58;0.90;;;;;;;;;;5023398;28;20026;-75
2023/03/14 05:01:12;;;;;;;1.95;0.98;;;;;;;;;;5021285;28;20033;-75
2023/03/14 05:03:39;;;;;;;2.15;0.93;;;;;;;;;;5022969;28;20014;-75
2023/03/14 05:06:05;;;;;;;1.73;0.77;;;;;;;;;;5018766;28;20037;-76
2023/03/14 05:08:32;;;;;;;2.70;1.05;;;;;;;;;;5022769;28;20639;-75
2023/03/14 05:10:58;;;;;;;2.30;0.95;;;;;;;;;;5022725;28;20087;-76
2023/03/14 05:13:24;;;;;;;2.65;0.90;;;;;;;;;;5017307;28;20029;-75
2023/03/14 05:15:51;;;;;;;3.63;1.45;;;;;;;;;;4996370;28;20060;-76
2023/03/14 05:18:17;;;;;;;1.58;1.00;;;;;;;;;;5011138;28;20052;-76
2023/03/14 05:20:43;;;;;;;1.92;1.08;;;;;;;;;;5017490;28;20397;-76
2023/03/14 05:23:10;;;;;;;2.05;0.95;;;;;;;;;;5009804;28;20053;-75
2023/03/14 05:25:36;;;;;;;2.92;1.00;;;;;;;;;;5003689;28;20021;-76
2023/03/14 05:28:02;;;;;;;1.92;1.00;;;;;;;;;;5013561;28;20101;-75
2023/03/14 05:30:30;;;;;;;3.45;1.35;;;;;;;;;;5021457;28;20029;-76
2023/03/14 05:32:57;;;;;;;1.98;0.90;;;;;;;;;;5020359;28;20100;-76
2023/03/14 05:35:23;;;;;;;2.50;1.48;;;;;;;;;;5016723;28;20059;-75
2023/03/14 05:37:49;;;;;;;6.25;1.05;;;;;;;;;;5012809;28;20029;-76
2023/03/14 05:40:15;;;;;;;1.95;0.95;;;;;;;;;;5017835;28;20271;-75
2023/03/14 05:42:41;;;;;;;1.40;1.10;;;;;;;;;;5017697;28;20033;-76
2023/03/14 05:45:08;;;;;;;2.72;1.10;;;;;;;;;;5002955;28;20124;-75
2023/03/14 05:47:37;;;;;;;2.85;1.15;;;;;;;;;;5018218;28;20405;-75
2023/03/14 05:50:03;;;;;;;2.15;1.15;;;;;;;;;;5000151;28;20568;-75
2023/03/14 05:52:29;;;;;;;4.25;1.10;;;;;;;;;;5017893;28;20033;-76
2023/03/14 05:54:55;;;;;;;1.98;1.13;;;;;;;;;;5022165;28;20030;-74
2023/03/14 05:57:22;;;;;;;3.03;1.02;;;;;;;;;;5022292;28;20029;-74
2023/03/14 05:59:48;;;;;;;2.80;0.80;;;;;;;;;;5020301;28;20029;-75
2023/03/14 06:02:14;;;;;;;1.50;1.20;;;;;;;;;;5021986;28;20533;-74
2023/03/14 06:04:40;;;;;;;2.65;1.23;;;;;;;;;;5021478;28;20037;-74
2023/03/14 06:07:06;;;;;;;2.03;0.73;;;;;;;;;;5022119;28;20108;-75
2023/03/14 06:09:33;;;;;;;2.25;0.82;;;;;;;;;;5021695;28;20108;-74
2023/03/14 06:11:59;;;;;;;3.00;0.90;;;;;;;;;;5002625;28;20123;-73
2023/03/14 06:14:25;;;;;;;2.80;1.30;;;;;;;;;;5021971;28;20384;-74
2023/03/14 06:16:52;;;;;;;2.92;1.27;;;;;;;;;;4998605;28;20120;-76
2023/03/14 06:19:19;;;;;;;1.58;0.93;;;;;;;;;;5013541;28;20103;-75
2023/03/14 06:21:45;;;;;;;1.40;0.80;;;;;;;;;;5020093;28;20112;-74
2023/03/14 06:24:11;;;;;;;1.58;0.90;;;;;;;;;;5004792;28;20052;-75
2023/03/14 06:26:37;;;;;;;2.88;0.90;;;;;;;;;;5019066;28;20151;-75
2023/03/14 06:29:04;;;;;;;1.75;0.80;;;;;;;;;;5021779;28;20033;-75
2023/03/14 06:31:31;;;;;;;2.17;1.05;;;;;;;;;;5019888;28;20124;-76
2023/03/14 06:33:57;;;;;;;2.67;1.02;;;;;;;;;;5016858;28;20025;-74
2023/03/14 06:36:23;;;;;;;2.47;0.90;;;;;;;;;;5017714;28;20105;-75
2023/03/14 06:38:50;;;;;;;2.28;0.80;;;;;;;;;;5021643;28;20052;-76
2023/03/14 06:41:16;;;;;;;2.45;0.93;;;;;;;;;;5020422;28;20382;-75
2023/03/14 06:43:42;;;;;;;2.38;1.05;;;;;;;;;;5021301;28;20503;-72
2023/03/14 06:46:09;;;;;;;2.90;1.30;;;;;;;;;;5015724;28;20022;-73
2023/03/14 06:48:35;;;;;;;3.75;1.25;;;;;;;;;;5019788;28;20033;-76
2023/03/14 06:51:01;;;;;;;2.38;1.48;;;;;;;;;;5012792;28;20037;-75
2023/03/14 06:53:28;;;;;;;2.33;1.30;;;;;;;;;;5025098;28;20029;-73
2023/03/14 06:55:54;;;;;;;2.50;1.25;;;;;;;;;;5001394;28;20084;-75
2023/03/14 06:58:20;;;;;;;2.47;1.33;;;;;;;;;;5025389;28;20112;-74
2023/03/14 07:00:47;;;;;;;2.67;1.15;;;;;;;;;;5019168;28;20062;-74
2023/03/14 07:03:14;;;;;;;1.65;0.98;;;;;;;;;;5025334;28;20492;-74
2023/03/14 07:05:41;;;;;;;1.33;0.80;;;;;;;;;;5019727;28;20112;-74
2023/03/14 07:08:07;;;;;;;1.98;0.90;;;;;;;;;;5020642;28;20022;-75
2023/03/14 07:10:34;;;;;;;1.67;1.00;;;;;;;;;;5017239;28;20044;-74
2023/03/14 07:13:00;;;;;;;2.83;1.30;;;;;;;;;;5021072;28;20022;-73
2023/03/14 07:15:30;;;;;;;1.88;0.90;;;;;;;;;;5001134;28;20044;-74
2023/03/14 07:17:56;;;;;;;3.50;0.70;;;;;;;;;;5021917;28;20045;-74
2023/03/14 07:20:23;;;;;;;1.58;0.73;;;;;;;;;;5017533;28;20022;-74
2023/03/14 07:22:49;;;;;;;1.20;0.63;;;;;;;;;;5024114;28;20040;-75
2023/03/14 07:25:16;;;;;;;2.17;0.98;;;;;;;;;;5020402;28;20521;-74
2023/03/14 07:27:47;;;;;;;1.55;0.75;;;;;;;;;;5013373;28;20033;-76
2023/03/14 07:30:14;;;;;;;2.30;0.70;;;;;;;;;;5014772;28;20033;-74
2023/03/14 07:32:40;;;;;;;1.90;0.68;;;;;;;;;;5022896;28;20031;-75
2023/03/14 07:35:07;;;;;;;1.05;0.73;;;;;;;;;;5017301;28;20052;-74
2023/03/14 07:37:33;;;;;;;1.80;0.77;;;;;;;;;;5023190;28;20488;-74
2023/03/14 07:39:59;;;;;;;1.95;0.80;;;;;;;;;;5007993;28;20080;-75
2023/03/14 07:42:26;;;;;;;1.60;0.77;;;;;;;;;;5013767;28;20034;-76
2023/03/14 07:44:52;;;;;;;2.05;0.80;;;;;;;;;;5022555;28;20089;-76
2023/03/14 07:47:18;;;;;;;2.05;0.70;;;;;;;;;;5019847;28;20141;-75
2023/03/14 07:49:44;;;;;;;2.17;0.80;;;;;;;;;;5021747;28;20013;-76
2023/03/14 07:52:10;;;;;;;2.47;0.70;;;;;;;;;;5022273;28;20102;-75
2023/03/14 07:54:37;;;;;;;2.55;0.75;;;;;;;;;;5015801;28;20025;-75
2023/03/14 07:57:03;;;;;;;1.20;0.73;;;;;;;;;;5022462;28;20030;-73
2023/03/14 07:59:30;;;;;;;2.17;1.08;;;;;;;;;;5022315;28;20028;-74
2023/03/14 08:01:56;;;;;;;2.47;0.70;;;;;;;;;;5011737;28;20116;-75
2023/03/14 08:04:22;;;;;;;1.80;0.63;;;;;;;;;;5011938;28;20474;-74
2023/03/14 08:06:48;;;;;;;2.58;0.70;;;;;;;;;;5018472;28;20037;-75
2023/03/14 08:09:15;;;;;;;1.25;0.80;;;;;;;;;;5001085;28;20118;-75
2023/03/14 08:11:41;;;;;;;6.43;1.50;;;;;;;;;;5015894;28;20034;-76
2023/03/14 08:14:07;;;;;;;5.95;1.73;;;;;;;;;;5023922;28;20029;-75
2023/03/14 08:16:34;;;;;;;3.75;1.50;;;;;;;;;;5021259;28;20545;-75
2023/03/14 08:19:00;;;;;;;6.28;1.58;;;;;;;;;;5012784;28;20401;-75
2023/03/14 08:21:26;;;;;;;7.43;1.45;;;;;;;;;;4994322;28;20034;-75
2023/03/14 08:23:53;;;;;;;4.15;1.55;;;;;;;;;;5016156;28;20759;-74
2023/03/14 08:26:19;;;;;;;2.13;1.25;;;;;;;;;;5021269;28;20033;-74
2023/03/14 08:28:45;;;;;;;4.00;1.80;;;;;;;;;;5008793;28;20095;-74
2023/03/14 08:31:11;;;;;;;3.20;1.23;;;;;;;;;;5015205;28;20121;-75
2023/03/14 08:33:38;;;;;;;4.00;1.30;;;;;;;;;;5023019;28;20022;-74
2023/03/14 08:36:04;;;;;;;2.30;1.38;;;;;;;;;;5023750;28;20044;-74
2023/03/14 08:38:30;;;;;;;3.63;1.92;;;;;;;;;;5016793;28;20029;-74
2023/03/14 08:41:01;;;;;;;5.55;2.10;;;;;;;;;;5015974;28;20106;-75
2023/03/14 08:43:27;;;;;;;3.83;1.88;;;;;;;;;;5021405;28;20488;-75
2023/03/14 08:45:53;;;;;;;2.97;1.95;;;;;;;;;;5023107;28;20056;-75
2023/03/14 08:48:19;;;;;;;3.60;2.10;;;;;;;;;;5020073;28;20053;-74
2023/03/14 08:50:46;;;;;;;5.30;2.38;;;;;;;;;;5021160;28;20037;-74
2023/03/14 08:53:12;;;;;;;4.82;2.65;;;;;;;;;;5019426;28;20067;-74
2023/03/14 08:55:38;;;;;;;4.95;2.42;;;;;;;;;;5015783;28;20018;-74
2023/03/14 08:58:05;;;;;;;5.22;2.78;;;;;;;;;;5019398;28;20041;-74
2023/03/14 09:00:31;;;;;;;5.00;3.20;;;;;;;;;;5021395;28;20700;-75
2023/03/14 09:02:57;;;;;;;12.38;3.90;;;;;;;;;;5016308;28;20069;-75
2023/03/14 09:05:23;;;;;;;6.18;3.03;;;;;;;;;;5012296;28;20014;-74
2023/03/14 09:07:49;;;;;;;3.75;2.38;;;;;;;;;;5012343;28;20159;-74
2023/03/14 09:10:16;;;;;;;4.00;2.50;;;;;;;;;;5020971;28;20080;-74
2023/03/14 09:12:42;;;;;;;4.38;2.53;;;;;;;;;;5023357;28;20064;-75
2023/03/14 09:15:08;;;;;;;10.13;5.03;;;;;;;;;;5022476;28;20152;-75
2023/03/14 09:17:35;;;;;;;9.43;5.88;;;;;;;;;;5022861;28;20060;-74
2023/03/14 09:20:03;;;;;;;8.68;5.30;;;;;;;;;;5019967;28;20568;-75
2023/03/14 09:22:30;;;;;;;11.70;4.82;;;;;;;;;;5019390;28;20531;-75
2023/03/14 09:24:56;;;;;;;11.32;4.03;;;;;;;;;;5014161;28;20061;-76
2023/03/14 09:27:22;;;;;;;5.55;3.42;;;;;;;;;;5018259;28;20087;-75
2023/03/14 09:29:48;;;;;;;3.50;1.80;;;;;;;;;;5006406;28;20715;-75
2023/03/14 09:32:14;;;;;;;2.88;1.80;;;;;;;;;;4996735;28;20044;-75
2023/03/14 09:34:41;;;;;;;2.03;1.10;;;;;;;;;;5014577;28;20482;-74
2023/03/14 09:37:07;;;;;;;3.55;1.30;;;;;;;;;;5004328;28;20025;-74
2023/03/14 09:39:33;;;;;;;1.52;1.00;;;;;;;;;;5022383;28;20021;-76
2023/03/14 09:42:02;;;;;;;2.53;1.00;;;;;;;;;;5021302;28;20490;-76
2023/03/14 09:44:30;;;;;;;1.90;1.00;;;;;;;;;;4995948;28;20493;-75
2023/03/14 09:46:58;;;;;;;2.05;1.02;;;;;;;;;;5013455;28;20034;-74
2023/03/14 09:49:24;;;;;;;2.92;1.20;;;;;;;;;;5016043;28;20072;-76
2023/03/14 09:51:52;;;;;;;2.00;1.00;;;;;;;;;;5005803;28;20117;-76
2023/03/14 09:54:38;;;;;;;3.00;1.30;;;;;;;;;;5021998;28;20029;-76
2023/03/14 09:57:06;;;;;;;3.47;1.60;;;;;;;;;;5019701;28;20088;-76
2023/03/14 09:59:32;;;;;;;2.03;1.15;;;;;;;;;;5014158;28;20026;-75
2023/03/14 10:02:01;;;;;;;4.65;1.70;;;;;;;;;;4999300;28;20030;-75
2023/03/14 10:04:29;;;;;;;5.20;3.65;;;;;;;;;;5016765;28;20117;-74
2023/03/14 10:06:56;;;;;;;5.68;2.45;;;;;;;;;;5018666;28;20095;-75
2023/03/14 10:09:26;;;;;;;1.95;1.25;;;;;;;;;;5015591;28;20064;-75
2023/03/14 10:11:56;;;;;;;2.55;1.40;;;;;;;;;;5014907;28;20029;-75
2023/03/14 10:14:33;;;;;;;6.15;2.13;;;;;;;;;;5015359;28;20033;-74
2023/03/14 10:17:07;;;;;;;6.20;1.83;;;;;;;;;;5019592;28;20489;-75
2023/03/14 10:19:35;;;;;;;4.60;1.60;;;;;;;;;;5018240;28;20033;-75
2023/03/14 10:22:02;;;;;;;4.82;1.83;;;;;;;;;;5020950;28;20021;-75
2023/03/14 10:24:30;;;;;;;3.55;1.60;;;;;;;;;;5022100;28;20026;-75
2023/03/14 10:27:20;;;;;;;3.90;2.20;;;;;;;;;;5010875;28;20104;-75
2023/03/14 10:29:56;;;;;;;3.22;1.70;;;;;;;;;;4997150;28;20071;-76
2023/03/14 10:32:28;;;;;;;2.63;1.35;;;;;;;;;;5012540;28;20342;-75
2023/03/14 10:35:21;;;;;;;5.57;1.77;;;;;;;;;;5014918;28;20034;-74
2023/03/14 10:38:01;;;;;;;3.88;2.05;;;;;;;;;;5015157;28;20044;-74
2023/03/14 10:40:31;;;;;;;8.80;3.22;;;;;;;;;;5018023;28;20513;-74
2023/03/14 10:42:59;;;;;;;;;;;;;;;;;;5021579;28;20548;-74
2023/03/14 10:45:33;;;;;;;5.43;2.00;;;;;;;;;;5021336;28;19905;-75
2023/03/14 10:48:00;;;;;;;4.28;1.20;;;;;;;;;;5019767;28;20068;-75
2023/03/14 10:50:30;;;;;;;4.68;2.10;;;;;;;;;;5015402;28;20441;-76
2023/03/14 10:52:57;;;;;;;3.35;1.55;;;;;;;;;;5021824;28;20040;-75
2023/03/14 10:55:26;;;;;;;7.70;2.00;;;;;;;;;;5020386;28;20469;-75
2023/03/14 10:57:53;;;;;;;5.40;2.17;;;;;;;;;;5007243;28;20041;-74
2023/03/14 11:00:23;;;;;;;5.35;1.75;;;;;;;;;;5011450;28;20080;-74
2023/03/14 11:02:55;;;;;;;2.30;1.27;;;;;;;;;;5019212;28;20026;-74
2023/03/14 11:05:35;;;;;;;2.70;1.38;;;;;;;;;;5005030;28;20049;-74
2023/03/14 11:08:24;;;;;;;3.20;1.23;;;;;;;;;;5017236;28;20028;-74
2023/03/14 11:10:54;;;;;;;3.13;1.10;;;;;;;;;;4995535;28;20036;-74
2023/03/14 11:13:52;;;;;;;3.67;1.48;;;;;;;;;;5018617;28;20022;-74
2023/03/14 11:16:21;;;;;;;5.03;1.48;;;;;;;;;;4957985;28;20104;-75
2023/03/14 11:18:52;;;;;;;4.75;1.10;;;;;;;;;;5020868;28;20109;-76
2023/03/14 11:21:18;;;;;;;4.47;1.20;;;;;;;;;;5020948;28;20132;-75
2023/03/14 11:24:03;;;;;;;3.83;1.17;;;;;;;;;;5019510;28;20045;-75
2023/03/14 11:26:29;;;;;;;3.03;1.23;;;;;;;;;;5019453;28;20029;-75
2023/03/14 11:28:58;;;;;;;3.28;1.50;;;;;;;;;;5020978;28;20180;-75
2023/03/14 11:31:24;;;;;;;5.97;2.17;;;;;;;;;;5019646;28;20508;-74
2023/03/14 11:33:59;;;;;;;5.05;1.50;;;;;;;;;;5014304;28;20022;-76
2023/03/14 11:36:29;;;;;;;3.70;1.38;;;;;;;;;;5024805;28;20064;-76
2023/03/14 11:38:57;;;;;;;7.50;1.50;;;;;;;;;;5024598;28;20409;-76
2023/03/14 11:41:26;;;;;;;7.88;1.98;;;;;;;;;;5024723;28;20049;-75
2023/03/14 11:43:55;;;;;;;5.15;1.67;;;;;;;;;;5016231;28;20617;-76
2023/03/14 11:46:30;;;;;;;4.68;1.60;;;;;;;;;;5015566;28;20025;-75
2023/03/14 11:49:21;;;;;;;4.95;1.60;;;;;;;;;;5008890;28;20048;-74
2023/03/14 11:51:49;;;;;;;7.07;2.72;;;;;;;;;;4999250;28;20639;-75
2023/03/14 11:54:24;;;;;;;10.05;2.08;;;;;;;;;;5018294;28;20446;-75
2023/03/14 11:56:55;;;;;;;7.07;2.58;;;;;;;;;;5011412;28;20040;-75
2023/03/14 11:59:28;;;;;;;8.10;2.42;;;;;;;;;;5019314;28;20485;-75
2023/03/14 12:01:58;;;;;;;7.50;3.08;;;;;;;;;;5013310;28;20558;-75
2023/03/14 12:04:36;;;;;;;5.57;2.05;;;;;;;;;;5014883;28;20033;-75
2023/03/14 12:07:05;;;;;;;9.82;3.13;;;;;;;;;;5003174;28;20109;-75
2023/03/14 12:09:32;;;;;;;7.57;2.50;;;;;;;;;;5008152;28;20117;-75
2023/03/14 12:12:00;;;;;;;8.57;2.67;;;;;;;;;;5011656;28;20030;-75
2023/03/14 12:14:33;;;;;;;6.63;2.22;;;;;;;;;;5016591;28;20022;-76
2023/03/14 12:17:18;;;;;;;9.43;2.53;;;;;;;;;;4991395;28;20104;-75
2023/03/14 12:19:47;;;;;;;6.32;2.65;;;;;;;;;;5024030;28;20164;-76
2023/03/14 12:22:29;;;;;;;7.63;2.90;;;;;;;;;;5024053;28;20817;-75
2023/03/14 12:24:58;;;;;;;7.88;2.88;;;;;;;;;;5023799;28;20629;-75
2023/03/14 12:27:42;;;;;;;6.60;3.10;;;;;;;;;;5017136;28;20034;-75
2023/03/14 12:30:25;;;;;;;6.47;2.58;;;;;;;;;;5014762;28;20017;-77
2023/03/14 12:33:10;;;;;;;6.07;2.53;;;;;;;;;;5022055;28;20551;-76
2023/03/14 12:35:52;;;;;;;7.13;2.88;;;;;;;;;;5022971;28;20022;-75
2023/03/14 12:38:39;;;;;;;8.85;3.63;;;;;;;;;;5023822;28;20035;-75
2023/03/14 12:41:23;;;;;;;13.27;3.22;;;;;;;;;;5021411;28;20041;-78
2023/03/14 12:43:54;;;;;;;7.38;2.80;;;;;;;;;;5022985;28;20029;-77
2023/03/14 12:46:22;;;;;;;9.77;3.37;;;;;;;;;;5023377;28;20033;-77
2023/03/14 12:48:49;;;;;;;6.97;2.80;;;;;;;;;;5023219;28;20112;-77
2023/03/14 12:51:21;;;;;;;13.60;3.38;;;;;;;;;;5012567;28;20025;-77
2023/03/14 12:53:53;;;;;;;8.77;3.05;;;;;;;;;;5015213;28;20021;-77
2023/03/14 12:56:28;;;;;;;8.00;2.55;;;;;;;;;;5019013;28;20018;-77
2023/03/14 12:59:00;;;;;;;7.57;3.00;;;;;;;;;;5022891;28;20027;-78
2023/03/14 13:01:27;;;;;;;9.35;3.40;;;;;;;;;;5016653;28;20143;-78
2023/03/14 13:03:58;;;;;;;8.77;3.10;;;;;;;;;;5015643;28;20526;-77
2023/03/14 13:06:54;;;;;;;7.10;3.03;;;;;;;;;;5019644;28;20030;-77
2023/03/14 13:09:26;;;;;;;7.10;3.00;;;;;;;;;;4985485;28;20104;-76
2023/03/14 13:11:56;;;;;;;5.72;3.47;;;;;;;;;;4990519;28;20029;-77
2023/03/14 13:14:28;;;;;;;10.65;3.28;;;;;;;;;;4992903;28;20661;-76
2023/03/14 13:16:54;;;;;;;8.43;3.35;;;;;;;;;;4996950;28;20401;-80
2023/03/14 13:19:30;;;;;;;7.00;3.22;;;;;;;;;;5002317;28;20037;-77
2023/03/14 13:22:01;;;;;;;8.75;3.95;;;;;;;;;;5020096;28;20673;-76
2023/03/14 13:24:28;;;;;;;6.10;2.65;;;;;;;;;;5022711;28;20034;-73
2023/03/14 13:26:57;;;;;;;6.03;2.80;;;;;;;;;;5011072;28;20033;-76
2023/03/14 13:29:25;;;;;;;9.70;3.70;;;;;;;;;;5022412;28;20014;-79
2023/03/14 13:31:52;;;;;;;7.90;3.60;;;;;;;;;;5022629;28;20625;-76
2023/03/14 13:34:20;;;;;;;10.65;3.60;;;;;;;;;;5011898;28;20026;-75
2023/03/14 13:36:49;;;;;;;9.98;3.50;;;;;;;;;;5020757;28;20025;-77
2023/03/14 13:39:21;;;;;;;10.68;3.60;;;;;;;;;;4994885;28;20052;-77
2023/03/14 13:41:48;;;;;;;10.55;3.42;;;;;;;;;;4971068;28;20136;-77
2023/03/14 13:44:25;;;;;;;9.10;3.47;;;;;;;;;;5002465;28;20026;-76
2023/03/14 13:46:51;;;;;;;13.35;3.60;;;;;;;;;;4989434;28;20128;-77
2023/03/14 13:49:23;;;;;;;10.77;3.83;;;;;;;;;;4994362;28;20506;-76
2023/03/14 13:51:49;;;;;;;;;;;;;;;;;;4985261;28;20057;-74
2023/03/14 13:54:16;;;;;;;10.88;4.03;;;;;;;;;;4996813;28;20023;-74
2023/03/14 13:56:43;;;;;;;13.35;3.72;;;;;;;;;;4996713;28;20022;-77
2023/03/14 13:59:25;;;;;;;9.35;3.63;;;;;;;;;;5001048;28;20565;-77
2023/03/14 14:01:52;;;;;;;7.28;3.55;;;;;;;;;;4972473;28;20037;-77
2023/03/14 14:04:21;;;;;;;9.85;3.67;;;;;;;;;;4994445;28;20101;-76
2023/03/14 14:06:58;;;;;;;7.95;3.33;;;;;;;;;;4988173;28;20030;-77
2023/03/14 14:09:24;;;;;;;13.57;3.75;;;;;;;;;;4994303;28;20069;-76
2023/03/14 14:11:55;;;;;;;7.47;3.38;;;;;;;;;;5001567;28;20106;-77
2023/03/14 14:14:29;;;;;;;8.32;3.60;;;;;;;;;;4993042;28;20089;-77
2023/03/14 14:16:55;;;;;;;9.65;4.18;;;;;;;;;;5000804;28;20037;-78
2023/03/14 14:19:25;;;;;;;10.70;3.80;;;;;;;;;;5000979;28;20025;-77
2023/03/14 14:21:51;;;;;;;13.18;4.65;;;;;;;;;;4989297;28;20124;-77
2023/03/14 14:24:17;;;;;;;13.80;4.43;;;;;;;;;;4992278;28;20014;-77
2023/03/14 14:26:59;;;;;;;10.80;4.40;;;;;;;;;;5001545;28;20117;-77
2023/03/14 14:29:32;;;;;;;10.48;4.00;;;;;;;;;;4995337;28;20112;-77
2023/03/14 14:32:07;;;;;;;13.38;4.80;;;;;;;;;;5001777;28;20029;-77
2023/03/14 14:35:03;;;;;;;16.88;4.90;;;;;;;;;;5001478;28;20037;-77
2023/03/14 14:37:33;;;;;;;12.98;4.05;;;;;;;;;;4976143;28;20038;-77
2023/03/14 14:40:01;;;;;;;9.82;3.95;;;;;;;;;;4995929;28;20059;-77
2023/03/14 14:42:30;;;;;;;9.35;4.30;;;;;;;;;;5007919;28;20021;-78
2023/03/14 14:45:12;;;;;;;10.70;4.80;;;;;;;;;;5001754;28;20014;-82
2023/03/14 15:03:05;;;;;;;15.23;5.88;;;;;;;;;;5004869;28;20030;-77
2023/03/14 15:05:35;;;;;;;15.75;4.78;;;;;;;;;;5021225;28;20045;-77
2023/03/14 15:08:01;;;;;;;11.82;4.72;;;;;;;;;;5016030;28;20109;-77